createdAt,value
2017-10-14T00:01:59.701Z,8.00
2017-10-14T00:04:27.247Z,8.00
2017-10-14T00:06:54.706Z,8.00
2017-10-14T00:09:22.167Z,7.90
2017-10-14T00:11:49.614Z,7.90
2017-10-14T00:14:17.115Z,7.90
2017-10-14T00:16:45.364Z,8.00
2017-10-14T00:19:12.848Z,8.00
2017-10-14T00:21:41.077Z,8.00
2017-10-14T00:24:08.531Z,8.00
2017-10-14T00:26:35.988Z,8.00
2017-10-14T00:29:03.461Z,8.10
2017-10-14T00:31:30.914Z,8.00
2017-10-14T00:33:58.382Z,8.00
2017-10-14T00:36:25.903Z,8.00
2017-10-14T00:38:53.414Z,8.00
2017-10-14T00:41:20.871Z,8.00
2017-10-14T00:43:48.322Z,8.00
2017-10-14T00:46:15.814Z,8.00
2017-10-14T00:48:43.318Z,8.00
2017-10-14T00:51:10.797Z,8.00
2017-10-14T00:53:38.343Z,8.00
2017-10-14T00:56:05.898Z,7.90
2017-10-14T00:58:33.390Z,7.90
2017-10-14T01:01:01.643Z,7.90
2017-10-14T01:03:29.105Z,7.90
2017-10-14T01:05:56.542Z,7.90
2017-10-14T01:08:24.112Z,7.90
2017-10-14T01:10:51.566Z,7.90
2017-10-14T01:13:19.131Z,7.90
2017-10-14T01:15:46.673Z,7.80
2017-10-14T01:18:14.138Z,7.70
2017-10-14T01:20:41.620Z,7.60
2017-10-14T01:23:09.878Z,7.50
2017-10-14T01:25:37.993Z,7.50
2017-10-14T01:28:05.454Z,7.50
2017-10-14T01:30:32.905Z,7.40
2017-10-14T01:33:00.412Z,7.40
2017-10-14T01:35:27.890Z,7.40
2017-10-14T01:37:55.353Z,7.50
2017-10-14T01:40:22.942Z,7.50
2017-10-14T01:42:50.441Z,7.50
2017-10-14T01:45:17.915Z,7.50
2017-10-14T01:47:45.372Z,7.50
2017-10-14T01:50:14.351Z,7.50
2017-10-14T01:52:41.834Z,7.50
2017-10-14T01:55:09.305Z,7.50
2017-10-14T01:57:36.849Z,7.50
2017-10-14T02:00:04.352Z,7.40
2017-10-14T02:02:31.870Z,7.30
2017-10-14T02:04:59.339Z,7.30
2017-10-14T02:07:27.690Z,7.30
2017-10-14T02:09:55.166Z,7.30
2017-10-14T02:12:23.423Z,7.30
2017-10-14T02:14:50.981Z,7.30
2017-10-14T02:17:18.438Z,7.30
2017-10-14T02:19:46.017Z,7.30
2017-10-14T02:22:13.481Z,7.30
2017-10-14T02:24:40.945Z,7.30
2017-10-14T02:27:08.575Z,7.30
2017-10-14T02:29:36.029Z,7.30
2017-10-14T02:32:03.603Z,7.30
2017-10-14T02:34:31.069Z,7.40
2017-10-14T02:36:58.525Z,7.30
2017-10-14T02:39:26.758Z,7.30
2017-10-14T02:41:54.247Z,7.30
2017-10-14T02:44:21.698Z,7.30
2017-10-14T02:46:49.221Z,7.40
2017-10-14T02:49:16.675Z,7.40
2017-10-14T02:51:44.127Z,7.40
2017-10-14T02:54:11.570Z,7.40
2017-10-14T02:56:39.110Z,7.40
2017-10-14T02:59:07.329Z,7.30
2017-10-14T03:01:34.828Z,7.30
2017-10-14T03:04:02.371Z,7.20
2017-10-14T03:06:29.900Z,7.20
2017-10-14T03:08:57.351Z,7.10
2017-10-14T03:11:24.858Z,7.10
2017-10-14T03:13:52.425Z,7.10
2017-10-14T03:16:19.885Z,7.00
2017-10-14T03:18:47.338Z,7.00
2017-10-14T03:21:14.953Z,7.00
2017-10-14T03:23:42.437Z,6.90
2017-10-14T03:26:09.910Z,6.90
2017-10-14T03:28:37.390Z,6.90
2017-10-14T03:31:05.611Z,6.90
2017-10-14T03:33:33.090Z,6.90
2017-10-14T03:36:00.545Z,6.90
2017-10-14T03:38:28.020Z,6.90
2017-10-14T03:40:55.482Z,6.90
2017-10-14T03:43:24.542Z,6.80
2017-10-14T03:45:52.022Z,6.80
2017-10-14T03:48:19.587Z,6.80
2017-10-14T03:50:47.037Z,6.80
2017-10-14T03:53:14.608Z,6.80
2017-10-14T03:55:42.174Z,6.80
2017-10-14T03:58:10.390Z,6.80
2017-10-14T04:00:37.853Z,6.80
2017-10-14T04:03:05.413Z,6.80
2017-10-14T04:05:32.870Z,6.90
2017-10-14T04:08:00.365Z,6.90
2017-10-14T04:10:27.995Z,6.80
2017-10-14T04:12:55.501Z,6.80
2017-10-14T04:15:22.960Z,6.90
2017-10-14T04:17:51.221Z,6.90
2017-10-14T04:20:19.484Z,6.90
2017-10-14T04:22:46.925Z,6.90
2017-10-14T04:25:14.382Z,6.90
2017-10-14T04:27:41.846Z,6.90
2017-10-14T04:30:09.321Z,6.90
2017-10-14T04:32:36.779Z,6.90
2017-10-14T04:35:04.258Z,6.90
2017-10-14T04:37:31.736Z,6.80
2017-10-14T04:39:59.185Z,6.80
2017-10-14T04:42:27.442Z,6.80
2017-10-14T04:44:54.906Z,6.80
2017-10-14T04:47:22.441Z,6.80
2017-10-14T04:49:49.909Z,6.80
2017-10-14T04:52:17.357Z,6.70
2017-10-14T04:54:44.862Z,6.80
2017-10-14T04:57:13.109Z,6.80
2017-10-14T04:59:40.550Z,6.80
2017-10-14T05:02:08.009Z,6.80
2017-10-14T05:04:35.461Z,6.80
2017-10-14T05:07:02.922Z,6.90
2017-10-14T05:09:30.398Z,6.90
2017-10-14T05:11:57.882Z,6.90
2017-10-14T05:14:26.110Z,6.80
2017-10-14T05:16:53.726Z,6.80
2017-10-14T05:19:21.937Z,6.80
2017-10-14T05:21:49.398Z,6.80
2017-10-14T05:24:16.855Z,6.80
2017-10-14T05:26:44.306Z,6.80
2017-10-14T05:29:11.786Z,6.80
2017-10-14T05:31:40.073Z,6.80
2017-10-14T05:34:07.513Z,6.80
2017-10-14T05:36:35.016Z,6.80
2017-10-14T05:39:03.218Z,6.70
2017-10-14T05:41:30.725Z,6.70
2017-10-14T05:43:58.321Z,6.70
2017-10-14T05:46:25.790Z,6.70
2017-10-14T05:48:53.320Z,6.70
2017-10-14T05:51:20.798Z,6.70
2017-10-14T05:53:48.311Z,6.80
2017-10-14T05:56:15.776Z,6.90
2017-10-14T05:58:43.309Z,6.90
2017-10-14T06:01:10.766Z,7.00
2017-10-14T06:03:38.226Z,7.10
2017-10-14T06:06:05.775Z,7.10
2017-10-14T06:08:33.221Z,7.20
2017-10-14T06:11:00.681Z,7.20
2017-10-14T06:13:28.149Z,7.30
2017-10-14T06:15:56.431Z,7.30
2017-10-14T06:18:24.043Z,7.60
2017-10-14T06:20:51.559Z,8.20
2017-10-14T06:23:19.013Z,8.70
2017-10-14T06:25:46.586Z,9.20
2017-10-14T06:28:14.029Z,9.60
2017-10-14T06:30:41.499Z,9.80
2017-10-14T06:33:09.041Z,10.20
2017-10-14T06:35:36.602Z,10.30
2017-10-14T06:38:04.062Z,10.40
2017-10-14T06:40:31.620Z,10.70
2017-10-14T06:42:59.085Z,10.90
2017-10-14T06:45:26.535Z,11.00
2017-10-14T06:47:53.988Z,11.10
2017-10-14T06:50:21.454Z,11.10
2017-10-14T06:52:49.702Z,10.70
2017-10-14T06:55:17.149Z,10.70
2017-10-14T06:57:44.645Z,10.60
2017-10-14T07:00:12.102Z,10.60
2017-10-14T07:02:39.549Z,10.70
2017-10-14T07:05:07.010Z,10.90
2017-10-14T07:07:34.494Z,11.10
2017-10-14T07:10:02.823Z,11.60
2017-10-14T07:12:30.306Z,11.60
2017-10-14T07:14:57.861Z,11.80
2017-10-14T07:17:25.330Z,11.80
2017-10-14T07:19:52.811Z,12.00
2017-10-14T07:22:21.031Z,12.10
2017-10-14T07:24:48.510Z,12.10
2017-10-14T07:27:16.070Z,12.10
2017-10-14T07:29:43.536Z,11.90
2017-10-14T07:32:11.002Z,11.90
2017-10-14T07:34:39.267Z,11.80
2017-10-14T07:37:06.822Z,11.80
2017-10-14T07:39:34.392Z,11.80
2017-10-14T07:42:02.006Z,11.80
2017-10-14T07:44:30.296Z,11.80
2017-10-14T07:46:57.750Z,11.80
2017-10-14T07:49:25.234Z,11.80
2017-10-14T07:51:52.836Z,11.90
2017-10-14T07:54:21.066Z,12.20
2017-10-14T07:56:48.523Z,12.10
2017-10-14T07:59:16.102Z,12.20
2017-10-14T08:01:43.545Z,12.30
2017-10-14T08:04:11.004Z,12.40
2017-10-14T08:06:38.469Z,12.60
2017-10-14T08:09:06.086Z,12.70
2017-10-14T08:11:33.629Z,12.80
2017-10-14T08:14:07.771Z,12.90
2017-10-14T08:16:35.229Z,13.00
2017-10-14T08:19:02.713Z,13.20
2017-10-14T08:21:30.273Z,13.30
2017-10-14T08:23:57.727Z,13.50
2017-10-14T08:26:25.186Z,13.60
2017-10-14T08:28:53.122Z,13.70
2017-10-14T08:31:20.710Z,13.90
2017-10-14T08:33:48.265Z,14.10
2017-10-14T08:36:15.723Z,14.30
2017-10-14T08:38:43.294Z,14.40
2017-10-14T08:41:10.759Z,14.60
2017-10-14T08:43:38.330Z,14.80
2017-10-14T08:46:06.583Z,15.20
2017-10-14T08:48:34.045Z,15.20
2017-10-14T08:51:01.513Z,15.40
2017-10-14T08:53:29.789Z,15.70
2017-10-14T08:55:57.253Z,15.70
2017-10-14T08:58:25.486Z,16.00
2017-10-14T09:00:52.954Z,16.00
2017-10-14T09:03:20.421Z,16.20
2017-10-14T09:05:48.029Z,16.20
2017-10-14T09:08:15.501Z,16.40
2017-10-14T09:10:42.956Z,16.50
2017-10-14T09:13:10.463Z,16.60
2017-10-14T09:15:37.957Z,16.70
2017-10-14T09:18:05.416Z,16.80
2017-10-14T09:20:33.113Z,16.80
2017-10-14T09:23:00.586Z,16.80
2017-10-14T09:25:28.038Z,16.80
2017-10-14T09:27:55.526Z,16.80
2017-10-14T09:30:22.981Z,17.10
2017-10-14T09:32:50.475Z,17.10
2017-10-14T09:35:17.939Z,17.00
2017-10-14T09:37:45.390Z,17.20
2017-10-14T09:40:12.846Z,17.30
2017-10-14T09:42:40.375Z,17.40
2017-10-14T09:45:07.836Z,17.40
2017-10-14T09:47:36.060Z,17.40
2017-10-14T09:50:03.515Z,17.40
2017-10-14T09:52:30.974Z,17.40
2017-10-14T09:54:58.451Z,17.40
2017-10-14T09:57:25.925Z,17.40
2017-10-14T09:59:53.374Z,17.60
2017-10-14T10:02:20.843Z,17.70
2017-10-14T10:04:48.301Z,17.70
2017-10-14T10:07:15.870Z,17.80
2017-10-14T10:09:43.412Z,18.00
2017-10-14T10:12:10.861Z,18.00
2017-10-14T10:14:38.374Z,18.20
2017-10-14T10:17:05.830Z,18.40
2017-10-14T10:19:33.289Z,18.50
2017-10-14T10:22:00.810Z,18.40
2017-10-14T10:24:28.276Z,18.40
2017-10-14T10:26:55.722Z,18.40
2017-10-14T10:29:23.184Z,18.30
2017-10-14T10:31:50.641Z,18.40
2017-10-14T10:34:18.101Z,18.60
2017-10-14T10:36:45.562Z,18.70
2017-10-14T10:39:13.097Z,18.80
2017-10-14T10:41:40.555Z,18.90
2017-10-14T10:44:08.011Z,18.80
2017-10-14T10:46:35.463Z,18.90
2017-10-14T10:49:02.937Z,18.90
2017-10-14T10:51:30.382Z,19.00
2017-10-14T10:53:57.843Z,19.00
2017-10-14T10:56:25.293Z,19.00
2017-10-14T10:58:52.755Z,19.10
2017-10-14T11:01:20.322Z,19.10
2017-10-14T11:03:47.813Z,19.00
2017-10-14T11:06:16.039Z,19.00
2017-10-14T11:08:43.517Z,19.00
2017-10-14T11:11:11.067Z,19.10
2017-10-14T11:13:38.521Z,19.30
2017-10-14T11:16:06.006Z,19.30
2017-10-14T11:18:34.229Z,19.40
2017-10-14T11:21:01.724Z,19.40
2017-10-14T11:23:29.169Z,19.50
2017-10-14T11:25:56.633Z,19.50
2017-10-14T11:28:24.096Z,19.60
2017-10-14T11:30:51.649Z,19.70
2017-10-14T11:33:19.247Z,19.80
2017-10-14T11:35:47.553Z,19.70
2017-10-14T11:38:15.040Z,19.60
2017-10-14T11:40:42.603Z,19.80
2017-10-14T11:43:10.133Z,19.60
2017-10-14T11:45:37.621Z,19.40
2017-10-14T11:48:05.182Z,19.50
2017-10-14T11:50:32.808Z,19.50
2017-10-14T11:53:00.321Z,19.50
2017-10-14T11:55:27.777Z,19.50
2017-10-14T11:57:56.002Z,19.50
2017-10-14T12:00:23.458Z,19.50
2017-10-14T12:02:50.949Z,19.60
2017-10-14T12:05:18.511Z,19.70
2017-10-14T12:07:46.084Z,19.70
2017-10-14T12:10:13.629Z,19.70
2017-10-14T12:12:41.186Z,19.60
2017-10-14T12:15:08.642Z,19.40
2017-10-14T12:17:36.101Z,19.40
2017-10-14T12:20:03.659Z,19.40
2017-10-14T12:22:31.138Z,19.50
2017-10-14T12:24:59.459Z,19.70
2017-10-14T12:27:26.930Z,19.70
2017-10-14T12:29:54.409Z,19.70
2017-10-14T12:32:21.914Z,19.80
2017-10-14T12:34:49.374Z,19.80
2017-10-14T12:37:16.833Z,19.90
2017-10-14T12:39:44.345Z,19.90
2017-10-14T12:42:11.883Z,19.80
2017-10-14T12:44:39.362Z,19.70
2017-10-14T12:47:06.917Z,19.70
2017-10-14T12:49:34.486Z,19.80
2017-10-14T12:52:02.103Z,19.80
2017-10-14T12:54:29.594Z,19.80
2017-10-14T12:56:57.056Z,19.90
2017-10-14T12:59:24.518Z,19.90
2017-10-14T13:01:52.067Z,19.90
2017-10-14T13:04:19.518Z,19.80
2017-10-14T13:06:47.078Z,19.80
2017-10-14T13:09:14.550Z,19.70
2017-10-14T13:11:42.107Z,19.70
2017-10-14T13:14:09.574Z,19.70
2017-10-14T13:16:37.084Z,19.70
2017-10-14T13:19:04.582Z,19.70
2017-10-14T13:21:32.103Z,19.70
2017-10-14T13:23:59.567Z,19.70
2017-10-14T13:26:27.022Z,19.70
2017-10-14T13:28:54.496Z,19.70
2017-10-14T13:31:21.946Z,19.70
2017-10-14T13:33:49.401Z,19.60
2017-10-14T13:36:16.864Z,19.60
2017-10-14T13:38:44.337Z,19.70
2017-10-14T13:41:13.349Z,19.60
2017-10-14T13:43:40.802Z,19.60
2017-10-14T13:46:08.254Z,19.70
2017-10-14T13:48:35.733Z,19.80
2017-10-14T13:51:03.955Z,19.70
2017-10-14T13:53:31.419Z,19.70
2017-10-14T13:55:58.858Z,19.70
2017-10-14T13:58:26.379Z,19.70
2017-10-14T14:00:54.640Z,19.60
2017-10-14T14:03:22.105Z,19.60
2017-10-14T14:05:50.334Z,19.60
2017-10-14T14:08:17.811Z,19.60
2017-10-14T14:10:45.266Z,19.50
2017-10-14T14:13:12.750Z,19.50
2017-10-14T14:15:40.201Z,19.50
2017-10-14T14:18:07.814Z,19.50
2017-10-14T14:20:36.026Z,19.50
2017-10-14T14:23:03.481Z,19.60
2017-10-14T14:25:30.947Z,19.50
2017-10-14T14:27:59.158Z,19.40
2017-10-14T14:30:26.626Z,19.30
2017-10-14T14:32:54.088Z,19.30
2017-10-14T14:35:21.542Z,19.30
2017-10-14T14:37:48.998Z,19.30
2017-10-14T14:40:16.562Z,19.30
2017-10-14T14:42:44.018Z,19.20
2017-10-14T14:45:11.493Z,19.20
2017-10-14T14:47:38.986Z,19.10
2017-10-14T14:50:06.572Z,19.10
2017-10-14T14:52:34.058Z,19.10
2017-10-14T14:55:01.512Z,19.10
2017-10-14T14:57:28.961Z,19.10
2017-10-14T14:59:56.434Z,19.10
2017-10-14T15:02:24.030Z,19.10
2017-10-14T15:04:51.602Z,19.00
2017-10-14T15:07:19.058Z,18.90
2017-10-14T15:09:46.618Z,18.80
2017-10-14T15:12:14.076Z,18.70
2017-10-14T15:14:41.546Z,18.60
2017-10-14T15:17:09.001Z,18.60
2017-10-14T15:19:36.528Z,18.50
2017-10-14T15:22:04.011Z,18.60
2017-10-14T15:24:32.985Z,18.40
2017-10-14T15:27:00.527Z,18.40
2017-10-14T15:29:28.022Z,18.50
2017-10-14T15:31:55.482Z,18.50
2017-10-14T15:34:23.003Z,18.30
2017-10-14T15:36:50.461Z,18.10
2017-10-14T15:39:17.913Z,18.00
2017-10-14T15:41:45.377Z,17.90
2017-10-14T15:44:12.874Z,17.80
2017-10-14T15:46:40.339Z,17.80
2017-10-14T15:49:07.806Z,17.80
2017-10-14T15:51:36.071Z,17.80
2017-10-14T15:54:04.340Z,17.80
2017-10-14T15:56:31.810Z,17.80
2017-10-14T15:58:59.366Z,17.70
2017-10-14T16:01:26.821Z,17.60
2017-10-14T16:03:54.309Z,17.50
2017-10-14T16:06:21.779Z,17.30
2017-10-14T16:08:49.258Z,17.20
2017-10-14T16:11:16.804Z,17.10
2017-10-14T16:13:44.258Z,16.90
2017-10-14T16:16:11.728Z,16.80
2017-10-14T16:18:39.279Z,16.70
2017-10-14T16:21:06.778Z,16.70
2017-10-14T16:23:34.266Z,16.70
2017-10-14T16:26:02.537Z,16.50
2017-10-14T16:28:30.774Z,16.40
2017-10-14T16:30:58.257Z,16.30
2017-10-14T16:33:25.718Z,16.20
2017-10-14T16:35:53.185Z,16.20
2017-10-14T16:38:21.504Z,16.10
2017-10-14T16:40:48.973Z,16.00
2017-10-14T16:43:16.442Z,15.90
2017-10-14T16:45:43.977Z,15.80
2017-10-14T16:48:11.464Z,15.80
2017-10-14T16:50:38.930Z,15.70
2017-10-14T16:53:06.410Z,15.70
2017-10-14T16:55:34.637Z,15.60
2017-10-14T16:58:02.226Z,15.60
2017-10-14T17:00:29.694Z,15.50
2017-10-14T17:02:57.926Z,15.40
2017-10-14T17:05:25.417Z,15.30
2017-10-14T17:07:52.885Z,15.30
2017-10-14T17:10:21.205Z,15.00
2017-10-14T17:12:48.673Z,15.00
2017-10-14T17:15:16.221Z,15.00
2017-10-14T17:17:43.697Z,14.90
2017-10-14T17:20:11.165Z,14.90
2017-10-14T17:22:38.702Z,14.90
2017-10-14T17:25:06.166Z,14.90
2017-10-14T17:27:33.649Z,14.90
2017-10-14T17:30:01.122Z,14.80
2017-10-14T17:32:29.346Z,14.70
2017-10-14T17:34:56.825Z,14.70
2017-10-14T17:37:24.290Z,14.70
2017-10-14T17:39:51.865Z,14.60
2017-10-14T17:42:19.317Z,14.60
2017-10-14T17:44:46.837Z,14.70
2017-10-14T17:47:14.284Z,14.60
2017-10-14T17:49:41.790Z,14.60
2017-10-14T17:52:09.256Z,14.60
2017-10-14T17:54:37.530Z,14.40
2017-10-14T17:57:04.996Z,14.40
2017-10-14T17:59:32.477Z,14.30
2017-10-14T18:01:59.958Z,14.10
2017-10-14T18:04:27.425Z,14.00
2017-10-14T18:06:55.058Z,13.90
2017-10-14T18:09:22.519Z,13.70
2017-10-14T18:11:49.978Z,13.70
2017-10-14T18:14:17.477Z,13.60
2017-10-14T18:16:45.040Z,13.50
2017-10-14T18:19:12.617Z,13.40
2017-10-14T18:21:40.165Z,13.30
2017-10-14T18:24:07.665Z,13.20
2017-10-14T18:26:35.190Z,13.10
2017-10-14T18:29:02.657Z,13.00
2017-10-14T18:31:30.146Z,12.90
2017-10-14T18:33:57.624Z,12.80
2017-10-14T18:36:25.113Z,12.70
2017-10-14T18:38:52.575Z,12.70
2017-10-14T18:41:20.131Z,12.60
2017-10-14T18:43:49.121Z,12.40
2017-10-14T18:46:16.597Z,12.40
2017-10-14T18:48:44.885Z,12.30
2017-10-14T18:51:13.240Z,12.30
2017-10-14T18:53:40.709Z,12.30
2017-10-14T18:56:08.174Z,12.30
2017-10-14T18:58:36.528Z,12.20
2017-10-14T19:01:04.088Z,12.20
2017-10-14T19:03:31.586Z,12.20
2017-10-14T19:05:59.111Z,12.10
2017-10-14T19:08:26.605Z,12.10
2017-10-14T19:10:54.158Z,12.10
2017-10-14T19:13:22.409Z,11.90
2017-10-14T19:15:49.869Z,11.90
2017-10-14T19:18:17.334Z,11.90
2017-10-14T19:20:45.585Z,11.80
2017-10-14T19:23:13.065Z,11.80
2017-10-14T19:25:41.302Z,11.70
2017-10-14T19:28:08.767Z,11.70
2017-10-14T19:30:36.255Z,11.70
2017-10-14T19:33:03.790Z,11.60
2017-10-14T19:35:31.271Z,11.60
2017-10-14T19:37:58.877Z,11.50
2017-10-14T19:40:26.385Z,11.50
2017-10-14T19:42:53.853Z,11.50
2017-10-14T19:45:22.080Z,11.40
2017-10-14T19:47:49.563Z,11.40
2017-10-14T19:50:17.128Z,11.40
2017-10-14T19:52:44.689Z,11.30
2017-10-14T19:55:12.170Z,11.30
2017-10-14T19:57:40.417Z,11.20
2017-10-14T20:00:07.981Z,11.20
2017-10-14T20:02:35.441Z,11.20
2017-10-14T20:05:02.982Z,11.20
2017-10-14T20:07:30.438Z,11.20
2017-10-14T20:09:58.017Z,11.10
2017-10-14T20:12:25.482Z,11.10
2017-10-14T20:14:53.746Z,10.90
2017-10-14T20:17:21.409Z,10.90
2017-10-14T20:19:48.865Z,10.90
2017-10-14T20:22:16.382Z,10.80
2017-10-14T20:24:43.845Z,10.80
2017-10-14T20:27:11.333Z,10.80
2017-10-14T20:29:38.793Z,10.80
2017-10-14T20:32:06.381Z,10.80
2017-10-14T20:34:34.633Z,10.80
2017-10-14T20:37:02.190Z,10.80
2017-10-14T20:39:29.765Z,10.70
2017-10-14T20:41:57.997Z,10.60
2017-10-14T20:44:25.491Z,10.60
2017-10-14T20:46:53.054Z,10.60
2017-10-14T20:49:20.549Z,10.60
2017-10-14T20:51:48.016Z,10.50
2017-10-14T20:54:15.499Z,10.50
2017-10-14T20:56:42.971Z,10.40
2017-10-14T20:59:10.546Z,10.40
2017-10-14T21:01:38.002Z,10.40
2017-10-14T21:04:06.974Z,10.30
2017-10-14T21:06:34.435Z,10.40
2017-10-14T21:09:02.064Z,10.40
2017-10-14T21:11:29.557Z,10.40
2017-10-14T21:13:57.124Z,10.30
2017-10-14T21:16:24.580Z,10.30
2017-10-14T21:18:52.884Z,10.30
2017-10-14T21:21:21.192Z,10.30
2017-10-14T21:23:48.654Z,10.20
2017-10-14T21:26:16.146Z,10.20
2017-10-14T21:31:17.591Z,10.10
2017-10-14T21:33:45.069Z,10.00
2017-10-14T21:36:12.525Z,10.00
2017-10-14T21:38:39.994Z,9.90
2017-10-14T21:41:07.538Z,9.90
2017-10-14T21:43:35.055Z,9.90
2017-10-14T21:46:02.526Z,10.00
2017-10-14T21:48:30.018Z,10.00
2017-10-14T21:50:57.487Z,9.90
2017-10-14T21:53:24.961Z,9.90
2017-10-14T21:55:53.319Z,9.80
2017-10-14T21:58:20.777Z,9.80
2017-10-14T22:00:48.230Z,9.80
2017-10-14T22:03:15.797Z,9.80
2017-10-14T22:05:43.237Z,9.80
2017-10-14T22:08:10.702Z,9.70
2017-10-14T22:10:38.258Z,9.70
2017-10-14T22:13:05.721Z,9.70
2017-10-14T22:15:33.281Z,9.70
2017-10-14T22:18:00.841Z,9.70
2017-10-14T22:20:28.405Z,9.70
2017-10-14T22:22:55.915Z,9.70
2017-10-14T22:25:23.476Z,9.60
2017-10-14T22:27:50.967Z,9.60
2017-10-14T22:30:18.425Z,9.60
2017-10-14T22:32:45.875Z,9.50
2017-10-14T22:35:13.337Z,9.50
2017-10-14T22:37:40.797Z,9.40
2017-10-14T22:40:08.254Z,9.40
2017-10-14T22:42:35.736Z,9.40
2017-10-14T22:45:03.254Z,9.30
2017-10-14T22:47:30.736Z,9.30
2017-10-14T22:49:58.293Z,9.30
2017-10-14T22:52:25.853Z,9.30
2017-10-14T22:54:53.410Z,9.20
2017-10-14T22:57:20.863Z,9.20
2017-10-14T22:59:48.450Z,9.30
2017-10-14T23:02:16.720Z,9.20
2017-10-14T23:04:44.270Z,9.20
2017-10-14T23:07:11.833Z,9.10
2017-10-14T23:09:40.067Z,9.10
2017-10-14T23:12:07.578Z,9.00
2017-10-14T23:14:35.030Z,9.00
2017-10-14T23:17:02.538Z,9.10
2017-10-14T23:19:30.038Z,9.10
2017-10-14T23:21:57.555Z,9.10
2017-10-14T23:24:25.008Z,9.10
2017-10-14T23:26:52.482Z,9.00
2017-10-14T23:29:20.024Z,8.90
2017-10-14T23:31:47.513Z,8.90
2017-10-14T23:34:14.978Z,8.80
2017-10-14T23:36:42.452Z,8.80
2017-10-14T23:39:09.901Z,8.80
2017-10-14T23:41:37.358Z,8.70
2017-10-14T23:44:04.807Z,8.70
2017-10-14T23:46:32.352Z,8.70
2017-10-14T23:48:59.826Z,8.70
2017-10-14T23:51:27.287Z,8.70
2017-10-14T23:53:54.839Z,8.70
2017-10-14T23:56:22.306Z,8.70
2017-10-14T23:58:49.775Z,8.70
